Main page
METAR-TAF:

METAR-TAF

Airports :

Jomo Kenyatta International Airport

Nairobi, Kenya

latitude: 01-19S, longitude: 036-55E, elevation: 1624 m

Current weather observation

The report was made 37 minutes ago, at 08:30 UTC
Wind 4 kt from variable directions
Temperature 21°C
Humidity 56%
Pressure 1026 hPa
Visibility 10 km or more
Broken clouds at a height of 2100 ft

METAR: HKJK 210830Z VRB04KT 9999 BKN021 21/12 Q1026 NOSIG

Time: 12:07 (09:07 UTC)

Forecast

The report was made 4 hours and 7 minutes ago, at 05:00 UTC
Forecast valid from 21 at 06 UTC to 22 at 12 UTC
Wind 10 kt from the East
Visibility 10 km or more
Broken clouds at a height of 2500 ft
Becoming
from 21 at 20 UTC to 21 at 23 UTC
Wind 5 kt from the North/Northeast
Broken clouds at a height of 1700 ft
Becoming
from 22 at 08 UTC to 22 at 11 UTC
Wind 10 kt from the East
Broken clouds at a height of 2400 ft

TAF: HKJK 210500Z 2106/2212 09010KT 9999 BKN025 BECMG 2120/2123 03005KT BKN017 BECMG 2208/2211 09010KT BKN024

Weather observations and forecasts of more than 4000 airports (METAR and TAF reports).

The available stations are represented by yellow and red dots on the map.

Hover mouse over dot to see the name of the station.

Then click to see weather observations and forecasts.

To change the map : click on the green buttons with a black cross to zoom in, on the green button with a dash to zoom out, or on the green arrows for adjacent maps.


METAR-TAF: